createdAt,value
2019-01-04T00:01:36.141Z,1.01
2019-01-04T00:04:04.773Z,1.02
2019-01-04T00:06:33.232Z,1.02
2019-01-04T00:09:01.734Z,1.05
2019-01-04T00:11:30.436Z,1.05
2019-01-04T00:13:58.944Z,1.07
2019-01-04T00:16:27.487Z,1.08
2019-01-04T00:18:55.990Z,1.08
2019-01-04T00:21:24.547Z,1.07
2019-01-04T00:23:53.116Z,1.06
2019-01-04T00:26:21.649Z,1.08
2019-01-04T00:28:50.182Z,1.08
2019-01-04T00:31:18.741Z,1.09
2019-01-04T00:33:47.224Z,1.09
2019-01-04T00:36:15.780Z,1.12
2019-01-04T00:38:44.530Z,1.12
2019-01-04T00:41:13.014Z,1.14
2019-01-04T00:43:41.480Z,1.14
2019-01-04T00:46:10.390Z,1.13
2019-01-04T00:48:38.875Z,1.14
2019-01-04T00:51:07.468Z,1.17
2019-01-04T00:53:35.994Z,1.16
2019-01-04T00:56:43.164Z,1.17
2019-01-04T00:59:51.892Z,1.18
2019-01-04T01:02:59.118Z,1.15
2019-01-04T01:06:06.292Z,1.15
2019-01-04T01:09:13.580Z,1.15
2019-01-04T01:12:22.051Z,1.13
2019-01-04T01:15:29.286Z,1.12
2019-01-04T01:21:37.728Z,1.19
2019-01-04T01:24:45.215Z,1.19
2019-01-04T01:27:52.334Z,1.19
2019-01-04T01:31:01.146Z,1.19
2019-01-04T01:34:08.343Z,1.21
2019-01-04T01:37:15.572Z,1.21
2019-01-04T01:40:22.795Z,1.22
2019-01-04T01:43:31.267Z,1.22
2019-01-04T01:46:39.746Z,1.26
2019-01-04T01:49:48.274Z,1.28
2019-01-04T01:52:37.702Z,1.28
2019-01-04T01:55:06.229Z,1.25
2019-01-04T01:57:34.816Z,1.20
2019-01-04T02:00:03.389Z,1.22
2019-01-04T02:02:32.238Z,1.22
2019-01-04T02:05:00.787Z,1.11
2019-01-04T02:07:29.335Z,1.12
2019-01-04T02:09:57.755Z,1.14
2019-01-04T02:12:26.793Z,1.15
2019-01-04T02:14:55.363Z,1.20
2019-01-04T02:17:23.910Z,1.20
2019-01-04T02:19:52.387Z,1.20
2019-01-04T02:22:20.922Z,1.19
2019-01-04T02:24:49.714Z,1.16
2019-01-04T02:27:18.239Z,1.14
2019-01-04T02:29:46.813Z,1.07
2019-01-04T02:32:15.269Z,1.11
2019-01-04T02:34:43.773Z,1.12
2019-01-04T02:37:52.479Z,1.15
2019-01-04T02:40:21.008Z,1.17
2019-01-04T02:42:49.522Z,1.15
2019-01-04T02:45:18.337Z,1.18
2019-01-04T02:47:46.961Z,1.16
2019-01-04T02:50:15.454Z,1.14
2019-01-04T02:52:44.288Z,1.15
2019-01-04T02:55:13.287Z,1.16
2019-01-04T02:57:41.750Z,1.13
2019-01-04T03:00:10.256Z,1.15
2019-01-04T03:02:38.783Z,1.01
2019-01-04T03:05:07.287Z,0.94
2019-01-04T03:07:35.859Z,0.96
2019-01-04T03:15:54.032Z,0.86
2019-01-04T03:18:22.530Z,0.85
2019-01-04T03:20:51.569Z,0.90
2019-01-04T03:23:20.055Z,0.93
2019-01-04T03:25:48.829Z,0.96
2019-01-04T03:28:17.407Z,0.94
2019-01-04T03:30:45.844Z,0.97
2019-01-04T03:33:14.529Z,1.00
2019-01-04T03:35:43.123Z,0.98
2019-01-04T03:38:11.657Z,0.92
2019-01-04T03:40:40.196Z,0.85
2019-01-04T03:43:08.692Z,0.82
2019-01-04T03:45:37.215Z,0.74
2019-01-04T03:48:05.726Z,0.74
2019-01-04T03:50:34.205Z,0.78
2019-01-04T03:53:02.709Z,0.87
2019-01-04T03:55:31.204Z,0.84
2019-01-04T04:00:38.333Z,0.77
2019-01-04T04:03:06.870Z,0.82
2019-01-04T04:05:35.412Z,0.78
2019-01-04T04:08:03.909Z,0.81
2019-01-04T04:10:32.524Z,0.88
2019-01-04T04:13:00.987Z,0.89
2019-01-04T04:15:29.951Z,0.74
2019-01-04T04:17:58.404Z,0.76
2019-01-04T04:20:26.872Z,0.72
2019-01-04T04:22:55.278Z,0.72
2019-01-04T04:25:24.298Z,0.74
2019-01-04T04:30:41.797Z,0.70
2019-01-04T04:33:10.234Z,0.76
2019-01-04T04:35:38.777Z,0.70
2019-01-04T04:38:07.262Z,0.52
2019-01-04T04:40:36.079Z,0.56
2019-01-04T04:43:04.643Z,0.67
2019-01-04T04:45:33.226Z,0.61
2019-01-04T04:48:01.684Z,0.67
2019-01-04T04:50:30.156Z,0.68
2019-01-04T04:52:58.716Z,0.64
2019-01-04T04:55:27.587Z,0.66
2019-01-04T04:57:56.078Z,0.68
2019-01-04T05:00:24.574Z,0.58
2019-01-04T05:02:53.099Z,0.60
2019-01-04T05:05:21.926Z,0.62
2019-01-04T05:07:50.716Z,0.58
2019-01-04T05:10:19.175Z,0.60
2019-01-04T05:12:48.091Z,0.55
2019-01-04T05:15:16.608Z,0.51
2019-01-04T05:17:45.119Z,0.44
2019-01-04T05:20:13.635Z,0.47
2019-01-04T05:22:42.090Z,0.45
2019-01-04T05:25:10.917Z,0.48
2019-01-04T05:27:39.430Z,0.62
2019-01-04T05:30:08.014Z,0.47
2019-01-04T05:32:36.454Z,0.49
2019-01-04T05:37:59.639Z,0.64
2019-01-04T05:40:28.213Z,0.62
2019-01-04T05:43:10.817Z,0.55
2019-01-04T05:45:46.170Z,0.56
2019-01-04T05:48:14.726Z,0.61
2019-01-04T05:50:43.272Z,0.61
2019-01-04T05:53:11.818Z,0.60
2019-01-04T05:55:40.316Z,0.55
2019-01-04T05:58:08.878Z,0.51
2019-01-04T06:00:37.340Z,0.52
2019-01-04T06:03:05.920Z,0.58
2019-01-04T06:05:34.648Z,0.54
2019-01-04T06:08:03.066Z,0.57
2019-01-04T06:10:31.505Z,0.57
2019-01-04T06:13:00.001Z,0.62
2019-01-04T06:15:28.567Z,0.71
2019-01-04T06:17:57.136Z,0.69
2019-01-04T06:20:25.596Z,0.72
2019-01-04T06:22:54.238Z,0.78
2019-01-04T06:25:22.693Z,0.85
2019-01-04T06:27:51.173Z,0.84
2019-01-04T06:30:19.720Z,0.84
2019-01-04T06:32:48.185Z,0.89
2019-01-04T06:35:16.687Z,0.88
2019-01-04T06:37:45.140Z,0.81
2019-01-04T06:40:13.729Z,0.80
2019-01-04T06:42:42.161Z,0.94
2019-01-04T06:45:10.656Z,0.97
2019-01-04T06:47:39.179Z,0.96
2019-01-04T06:50:47.627Z,0.94
2019-01-04T06:53:16.098Z,0.96
2019-01-04T06:56:24.605Z,0.87
2019-01-04T06:58:53.128Z,0.78
2019-01-04T07:01:21.762Z,0.76
2019-01-04T07:03:50.144Z,0.74
2019-01-04T07:06:18.717Z,0.84
2019-01-04T07:08:47.236Z,0.84
2019-01-04T07:11:15.726Z,0.71
2019-01-04T07:13:44.581Z,0.79
2019-01-04T07:16:13.096Z,0.77
2019-01-04T07:18:41.562Z,0.88
2019-01-04T07:21:10.106Z,0.81
2019-01-04T07:23:38.858Z,0.87
2019-01-04T07:26:07.700Z,0.91
2019-01-04T07:28:36.378Z,0.82
2019-01-04T07:31:04.965Z,0.75
2019-01-04T07:33:33.540Z,0.68
2019-01-04T07:36:02.350Z,0.68
2019-01-04T07:38:30.891Z,0.62
2019-01-04T07:41:00.924Z,0.62
2019-01-04T07:46:05.204Z,0.81
2019-01-04T07:48:33.665Z,0.87
2019-01-04T07:51:02.181Z,0.89
2019-01-04T07:53:31.040Z,0.92
2019-01-04T07:56:00.620Z,0.91
2019-01-04T07:58:29.990Z,0.97
2019-01-04T08:00:58.622Z,0.98
2019-01-04T08:03:27.124Z,0.95
2019-01-04T08:05:56.066Z,0.93
2019-01-04T08:08:24.497Z,0.97
2019-01-04T08:10:53.093Z,1.00
2019-01-04T08:13:21.509Z,1.00
2019-01-04T08:15:50.056Z,1.06
2019-01-04T08:18:18.613Z,1.08
2019-01-04T08:20:47.124Z,0.96
2019-01-04T08:23:15.688Z,1.05
2019-01-04T08:25:44.216Z,1.07
2019-01-04T08:28:13.079Z,1.08
2019-01-04T08:30:41.757Z,1.07
2019-01-04T08:33:10.344Z,1.16
2019-01-04T08:35:38.897Z,1.12
2019-01-04T08:38:07.385Z,1.17
2019-01-04T08:40:35.916Z,1.07
2019-01-04T08:43:04.499Z,1.13
2019-01-04T08:45:33.390Z,1.24
2019-01-04T08:48:01.920Z,1.19
2019-01-04T08:50:30.498Z,1.30
2019-01-04T08:52:59.081Z,1.39
2019-01-04T08:55:27.672Z,1.35
2019-01-04T08:57:56.211Z,1.29
2019-01-04T09:00:25.017Z,1.31
2019-01-04T09:02:53.575Z,1.25
2019-01-04T09:05:22.132Z,1.33
2019-01-04T09:07:50.661Z,1.33
2019-01-04T09:10:19.341Z,1.33
2019-01-04T09:12:48.025Z,1.39
2019-01-04T09:15:16.685Z,1.40
2019-01-04T09:17:45.152Z,1.40
2019-01-04T09:20:13.792Z,1.52
2019-01-04T09:22:42.314Z,1.62
2019-01-04T09:25:10.877Z,1.56
2019-01-04T09:27:39.403Z,1.60
2019-01-04T09:30:47.881Z,1.64
2019-01-04T09:33:16.418Z,1.65
2019-01-04T09:35:44.925Z,1.62
2019-01-04T09:38:13.583Z,1.68
2019-01-04T09:40:42.053Z,1.69
2019-01-04T09:43:10.679Z,1.81
2019-01-04T09:45:39.304Z,1.63
2019-01-04T09:48:07.832Z,1.59
2019-01-04T09:50:36.385Z,1.64
2019-01-04T09:53:04.985Z,1.75
2019-01-04T09:55:33.575Z,1.76
2019-01-04T09:58:02.386Z,1.77
2019-01-04T10:00:30.869Z,1.82
2019-01-04T10:02:59.571Z,1.89
2019-01-04T10:05:28.356Z,1.85
2019-01-04T10:07:56.989Z,1.78
2019-01-04T10:10:25.452Z,1.75
2019-01-04T10:12:54.152Z,1.75
2019-01-04T10:15:22.764Z,1.79
2019-01-04T10:17:51.327Z,1.86
2019-01-04T10:20:19.968Z,1.94
2019-01-04T10:22:48.685Z,1.96
2019-01-04T10:25:17.241Z,1.96
2019-01-04T10:27:45.820Z,1.92
2019-01-04T10:30:54.305Z,1.99
2019-01-04T10:33:22.880Z,2.05
2019-01-04T10:35:51.498Z,2.00
2019-01-04T10:38:19.864Z,1.97
2019-01-04T10:40:48.873Z,1.94
2019-01-04T10:43:17.502Z,1.99
2019-01-04T10:45:46.085Z,2.05
2019-01-04T10:48:14.649Z,2.04
2019-01-04T10:50:43.306Z,2.11
2019-01-04T10:53:12.100Z,2.05
2019-01-04T10:55:40.974Z,2.13
2019-01-04T10:58:09.529Z,2.14
2019-01-04T11:00:38.171Z,2.10
2019-01-04T11:03:06.875Z,2.14
2019-01-04T11:05:35.546Z,2.16
2019-01-04T11:08:04.049Z,2.25
2019-01-04T11:10:32.698Z,2.26
2019-01-04T11:13:01.452Z,2.28
2019-01-04T11:15:31.338Z,2.25
2019-01-04T11:17:59.955Z,2.22
2019-01-04T11:20:47.870Z,2.24
2019-01-04T11:29:57.479Z,2.32
2019-01-04T11:33:06.084Z,2.38
2019-01-04T11:36:13.537Z,2.33
2019-01-04T11:39:22.022Z,2.53
2019-01-04T11:42:30.663Z,2.46
2019-01-04T11:45:37.933Z,2.48
2019-01-04T11:48:46.623Z,2.56
2019-01-04T11:51:27.843Z,2.50
2019-01-04T11:53:56.325Z,2.48
2019-01-04T11:56:25.013Z,2.52
2019-01-04T11:58:53.809Z,2.46
2019-01-04T12:01:22.394Z,2.48
2019-01-04T12:04:10.313Z,2.50
2019-01-04T12:06:39.030Z,2.61
2019-01-04T12:09:47.534Z,2.46
2019-01-04T12:12:16.111Z,2.58
2019-01-04T12:14:44.708Z,2.57
2019-01-04T12:17:14.162Z,2.57
2019-01-04T12:19:42.929Z,2.63
2019-01-04T12:22:11.662Z,2.66
2019-01-04T12:24:40.308Z,2.72
2019-01-04T12:27:08.964Z,2.79
2019-01-04T12:29:37.618Z,2.72
2019-01-04T12:32:06.149Z,2.76
2019-01-04T12:34:34.680Z,2.77
2019-01-04T12:37:23.955Z,2.79
2019-01-04T12:39:52.565Z,2.81
2019-01-04T12:42:21.202Z,2.89
2019-01-04T12:44:49.844Z,2.97
2019-01-04T12:47:18.498Z,2.98
2019-01-04T12:49:47.190Z,2.91
2019-01-04T12:52:15.823Z,2.93
2019-01-04T12:54:44.629Z,2.72
2019-01-04T12:57:13.068Z,2.72
2019-01-04T12:59:41.765Z,2.77
2019-01-04T13:02:10.228Z,2.72
2019-01-04T13:04:38.949Z,2.69
2019-01-04T13:10:15.682Z,2.76
2019-01-04T13:12:44.199Z,2.74
2019-01-04T13:15:12.762Z,2.83
2019-01-04T13:17:41.362Z,2.87
2019-01-04T13:20:09.899Z,2.81
2019-01-04T13:22:38.537Z,2.81
2019-01-04T13:25:46.978Z,2.82
2019-01-04T13:28:15.627Z,2.77
2019-01-04T13:30:44.223Z,2.80
2019-01-04T13:33:12.770Z,2.82
2019-01-04T13:35:41.528Z,2.76
2019-01-04T13:38:10.141Z,2.80
2019-01-04T13:40:38.736Z,2.91
2019-01-04T13:43:07.391Z,2.84
2019-01-04T13:45:36.160Z,2.80
2019-01-04T13:48:04.759Z,2.78
2019-01-04T13:50:33.420Z,2.80
2019-01-04T13:53:02.080Z,2.82
2019-01-04T13:55:30.594Z,2.79
2019-01-04T13:57:59.087Z,2.82
2019-01-04T14:00:27.605Z,2.81
2019-01-04T14:02:56.080Z,2.92
2019-01-04T14:05:24.592Z,2.81
2019-01-04T14:07:53.257Z,2.91
2019-01-04T14:10:21.722Z,2.91
2019-01-04T14:12:50.254Z,2.91
2019-01-04T14:15:18.814Z,2.91
2019-01-04T14:17:47.494Z,2.90
2019-01-04T14:20:16.299Z,2.91
2019-01-04T14:22:44.864Z,2.95
2019-01-04T14:25:13.437Z,2.88
2019-01-04T14:27:42.040Z,2.91
2019-01-04T14:30:50.529Z,2.95
2019-01-04T14:33:19.052Z,3.02
2019-01-04T14:35:47.597Z,2.94
2019-01-04T14:38:16.125Z,3.02
2019-01-04T14:40:44.698Z,3.02
2019-01-04T14:43:13.260Z,3.00
2019-01-04T14:45:41.856Z,3.06
2019-01-04T14:48:10.415Z,3.09
2019-01-04T14:50:39.209Z,3.07
2019-01-04T14:53:07.746Z,3.04
2019-01-04T14:55:36.322Z,3.05
2019-01-04T14:58:04.919Z,3.07
2019-01-04T15:00:33.774Z,3.08
2019-01-04T15:03:02.389Z,3.09
2019-01-04T15:05:30.901Z,3.08
2019-01-04T15:07:59.420Z,3.09
2019-01-04T15:10:27.966Z,3.20
2019-01-04T15:12:56.945Z,3.22
2019-01-04T15:15:25.809Z,3.29
2019-01-04T15:17:54.174Z,3.24
2019-01-04T15:20:22.649Z,3.24
2019-01-04T15:22:51.107Z,3.27
2019-01-04T15:25:19.581Z,3.34
2019-01-04T15:27:48.149Z,3.33
2019-01-04T15:30:16.663Z,3.32
2019-01-04T15:32:45.222Z,3.40
2019-01-04T15:35:13.821Z,3.34
2019-01-04T15:37:42.393Z,3.47
2019-01-04T15:40:10.848Z,3.39
2019-01-04T15:42:39.459Z,3.46
2019-01-04T15:45:47.906Z,3.46
2019-01-04T15:48:16.413Z,3.46
2019-01-04T15:50:44.999Z,3.50
2019-01-04T15:53:13.436Z,3.57
2019-01-04T15:55:41.942Z,3.56
2019-01-04T15:58:10.398Z,3.50
2019-01-04T16:00:39.039Z,3.50
2019-01-04T16:03:07.755Z,3.53
2019-01-04T16:05:36.300Z,3.52
2019-01-04T16:08:04.833Z,3.60
2019-01-04T16:10:33.370Z,3.65
2019-01-04T16:13:01.920Z,3.68
2019-01-04T16:15:30.603Z,3.73
2019-01-04T16:17:59.223Z,3.75
2019-01-04T16:20:28.214Z,3.69
2019-01-04T16:22:56.709Z,3.69
2019-01-04T16:25:25.319Z,3.68
2019-01-04T16:27:53.734Z,3.65
2019-01-04T16:30:22.275Z,3.71
2019-01-04T16:32:50.744Z,3.68
2019-01-04T16:35:40.006Z,3.71
2019-01-04T16:38:08.899Z,3.67
2019-01-04T16:40:37.481Z,3.73
2019-01-04T16:43:06.070Z,3.77
2019-01-04T16:48:23.730Z,3.79
2019-01-04T16:50:52.200Z,3.77
2019-01-04T16:53:20.751Z,3.80
2019-01-04T16:55:49.213Z,3.79
2019-01-04T16:58:17.665Z,3.75
2019-01-04T17:00:46.414Z,3.83
2019-01-04T17:03:14.927Z,3.87
2019-01-04T17:05:43.396Z,3.90
2019-01-04T17:08:11.861Z,3.89
2019-01-04T17:10:40.776Z,3.79
2019-01-04T17:13:09.278Z,3.84
2019-01-04T17:15:38.040Z,3.82
2019-01-04T17:18:06.581Z,3.80
2019-01-04T17:20:35.277Z,3.82
2019-01-04T17:23:03.815Z,3.87
2019-01-04T17:25:32.321Z,3.89
2019-01-04T17:28:00.827Z,3.86
2019-01-04T17:30:29.330Z,3.86
2019-01-04T17:35:31.395Z,3.83
2019-01-04T17:37:59.878Z,3.92
2019-01-04T17:40:28.336Z,3.94
2019-01-04T17:42:56.897Z,3.88
2019-01-04T17:45:25.440Z,3.90
2019-01-04T17:47:53.997Z,3.91
2019-01-04T17:50:22.555Z,3.95
2019-01-04T17:52:51.021Z,3.96
2019-01-04T17:55:19.588Z,3.92
2019-01-04T17:57:48.096Z,3.93
2019-01-04T18:00:17.076Z,3.92
2019-01-04T18:02:45.637Z,3.89
2019-01-04T18:05:14.233Z,3.87
2019-01-04T18:07:42.811Z,3.87
2019-01-04T18:10:11.717Z,3.90
2019-01-04T18:12:40.722Z,3.87
2019-01-04T18:15:09.262Z,3.94
2019-01-04T18:17:37.812Z,3.90
2019-01-04T18:20:46.282Z,3.90
2019-01-04T18:23:15.195Z,3.87
2019-01-04T18:25:43.665Z,3.90
2019-01-04T18:28:12.151Z,3.89
2019-01-04T18:30:40.651Z,3.87
2019-01-04T18:33:09.015Z,3.89
2019-01-04T18:35:37.505Z,3.96
2019-01-04T18:38:06.057Z,4.04
2019-01-04T18:40:34.575Z,4.03
2019-01-04T18:43:03.389Z,4.04
2019-01-04T18:45:32.153Z,4.03
2019-01-04T18:48:00.603Z,4.03
2019-01-04T18:53:08.271Z,4.05
2019-01-04T18:55:36.737Z,4.01
2019-01-04T18:58:05.238Z,4.02
2019-01-04T19:00:33.773Z,4.05
2019-01-04T19:03:02.207Z,4.13
2019-01-04T19:05:30.750Z,4.15
2019-01-04T19:07:59.350Z,4.16
2019-01-04T19:10:27.931Z,4.24
2019-01-04T19:12:56.632Z,4.19
2019-01-04T19:15:25.162Z,4.19
2019-01-04T19:17:53.715Z,4.19
2019-01-04T19:20:22.233Z,4.21
2019-01-04T19:22:51.167Z,4.22
2019-01-04T19:28:08.847Z,4.21
2019-01-04T19:30:37.337Z,4.17
2019-01-04T19:33:05.934Z,4.13
2019-01-04T19:35:34.483Z,4.11
2019-01-04T19:38:03.099Z,4.04
2019-01-04T19:40:31.742Z,4.05
2019-01-04T19:43:19.767Z,4.08
2019-01-04T19:46:07.606Z,4.03
2019-01-04T19:48:36.147Z,4.01
2019-01-04T19:51:05.191Z,4.07
2019-01-04T19:53:40.931Z,4.02
2019-01-04T19:56:09.363Z,3.99
2019-01-04T19:58:37.854Z,3.97
2019-01-04T20:01:26.866Z,3.99
2019-01-04T20:03:55.392Z,3.92
2019-01-04T20:07:04.329Z,3.80
2019-01-04T20:10:30.651Z,3.80
2019-01-04T20:13:56.923Z,3.75
2019-01-04T20:17:05.396Z,3.78
2019-01-04T20:20:13.874Z,3.80
2019-01-04T20:23:01.558Z,3.74
2019-01-04T20:25:49.240Z,3.75
2019-01-04T20:28:37.092Z,3.77
2019-01-04T20:31:24.834Z,3.75
2019-01-04T20:34:12.562Z,3.77
2019-01-04T20:37:00.254Z,3.81
2019-01-04T20:42:37.180Z,3.88
2019-01-04T20:45:45.613Z,3.85
2019-01-04T20:51:12.260Z,3.97
2019-01-04T20:56:49.004Z,4.03
2019-01-04T20:59:36.651Z,4.07
2019-01-04T21:02:24.539Z,4.13
2019-01-04T21:10:36.590Z,4.21
2019-01-04T21:13:24.271Z,4.33
2019-01-04T21:16:12.078Z,4.31
2019-01-04T21:18:59.643Z,4.34
2019-01-04T21:21:47.268Z,4.29
2019-01-04T21:27:24.041Z,4.30
2019-01-04T21:30:11.903Z,4.32
2019-01-04T21:35:35.354Z,4.40
2019-01-04T21:38:23.037Z,4.36
2019-01-04T21:43:59.779Z,4.42
2019-01-04T21:46:47.441Z,4.46
2019-01-04T21:49:35.091Z,4.47
2019-01-04T21:52:22.744Z,4.49
2019-01-04T21:55:10.531Z,4.56
2019-01-04T21:57:58.247Z,4.53
2019-01-04T22:00:46.219Z,4.50
2019-01-04T22:03:53.230Z,4.51
2019-01-04T22:06:40.940Z,4.54
2019-01-04T22:12:36.805Z,4.48
2019-01-04T22:15:45.258Z,4.50
2019-01-04T22:21:11.925Z,4.53
2019-01-04T22:23:59.531Z,4.58
2019-01-04T22:26:47.259Z,4.56
2019-01-04T22:32:24.091Z,4.58
2019-01-04T22:35:11.745Z,4.56
2019-01-04T22:40:34.994Z,4.59
2019-01-04T22:43:22.687Z,4.60
2019-01-04T22:46:10.432Z,4.63
2019-01-04T22:48:57.987Z,4.67
2019-01-04T22:57:13.345Z,4.75
2019-01-04T23:02:50.070Z,4.68
2019-01-04T23:05:37.762Z,4.68
2019-01-04T23:08:25.466Z,4.69
2019-01-04T23:11:13.097Z,4.69
2019-01-04T23:14:01.292Z,4.67
2019-01-04T23:16:48.891Z,4.74
2019-01-04T23:19:36.596Z,4.76
2019-01-04T23:25:32.612Z,4.80
2019-01-04T23:28:20.138Z,4.76
2019-01-04T23:31:08.125Z,4.75
2019-01-04T23:33:56.026Z,4.78
2019-01-04T23:36:43.745Z,4.80
2019-01-04T23:39:31.346Z,4.78
2019-01-04T23:42:18.957Z,4.77
2019-01-04T23:45:06.634Z,4.78
2019-01-04T23:47:54.231Z,4.77
2019-01-04T23:50:41.837Z,4.76
2019-01-04T23:53:29.484Z,4.77
2019-01-04T23:56:17.006Z,4.80
2019-01-04T23:59:04.725Z,4.81
